Time;durP1;ratioP1;P1;durP2;ratioP2;P2;SDS_P1;SDS_P2;PMS_P1;PMS_P2;Temp;Humidity;BMP_temperature;BMP_pressure;BME280_temperature;BME280_humidity;BME280_pressure;Samples;Min_cycle;Max_cycle;Signal;HPM_P1;HPM_P2
2022/03/13 00:02:02;;;;;;;2.30;1.70;;;12.90;92.20;;;;;;7343558;19;108652;-86
2022/03/13 00:04:30;;;;;;;2.58;1.50;;;12.90;92.20;;;;;;7342047;19;109141;-85
2022/03/13 00:06:57;;;;;;;2.00;1.67;;;12.90;92.10;;;;;;7342309;19;109673;-84
2022/03/13 00:09:25;;;;;;;1.92;1.73;;;12.90;92.00;;;;;;7348323;19;109908;-86
2022/03/13 00:11:53;;;;;;;2.08;1.73;;;12.90;92.00;;;;;;7342686;19;108832;-84
2022/03/13 00:14:25;;;;;;;1.88;1.67;;;12.80;92.20;;;;;;7341776;19;109606;-85
2022/03/13 00:16:54;;;;;;;2.03;1.70;;;12.80;92.20;;;;;;7338806;19;110124;-85
2022/03/13 00:19:22;;;;;;;2.63;1.80;;;12.80;92.20;;;;;;7340613;19;109314;-85
2022/03/13 00:21:52;;;;;;;2.67;2.00;;;12.70;92.40;;;;;;7341746;19;109617;-84
2022/03/13 00:24:23;;;;;;;2.78;2.20;;;12.70;92.50;;;;;;7341073;19;114116;-85
2022/03/13 00:26:54;;;;;;;2.92;2.10;;;12.70;92.50;;;;;;7342682;19;108161;-85
2022/03/13 00:29:21;;;;;;;1.98;1.73;;;12.70;92.60;;;;;;7342972;19;109477;-85
2022/03/13 00:31:48;;;;;;;3.15;1.80;;;12.80;92.60;;;;;;7345814;19;111024;-84
2022/03/13 00:34:16;;;;;;;1.70;1.60;;;12.80;92.50;;;;;;7341640;19;109783;-85
2022/03/13 00:36:43;;;;;;;2.28;2.05;;;12.80;92.60;;;;;;7340776;19;110946;-84
2022/03/13 00:39:11;;;;;;;2.70;2.22;;;12.80;92.60;;;;;;7340603;19;108670;-85
2022/03/13 00:41:39;;;;;;;2.13;1.92;;;12.80;92.60;;;;;;7342118;19;109508;-85
2022/03/13 00:44:06;;;;;;;2.53;1.70;;;12.80;92.70;;;;;;7341118;19;113095;-85
2022/03/13 00:46:34;;;;;;;2.03;1.65;;;12.70;92.90;;;;;;7341573;19;108426;-85
2022/03/13 00:49:01;;;;;;;1.95;1.70;;;12.60;92.90;;;;;;7341545;19;109525;-85
2022/03/13 00:51:28;;;;;;;2.40;1.83;;;12.60;92.90;;;;;;7338985;19;110772;-84
2022/03/13 00:53:55;;;;;;;2.55;1.90;;;12.60;92.90;;;;;;7346294;19;108352;-85
2022/03/13 00:56:22;;;;;;;1.92;1.73;;;12.60;93.20;;;;;;7340029;19;110189;-85
2022/03/13 00:58:49;;;;;;;2.65;1.70;;;12.50;93.40;;;;;;7338509;19;110951;-85
2022/03/13 01:01:16;;;;;;;2.45;1.70;;;12.40;93.60;;;;;;7341201;19;109498;-85
2022/03/13 01:03:44;;;;;;;2.45;1.80;;;12.30;93.90;;;;;;7340677;19;109193;-85
2022/03/13 01:06:11;;;;;;;;;;;12.20;93.90;;;;;;7340186;19;110386;-84
2022/03/13 01:08:38;;;;;;;2.60;1.80;;;12.20;94.10;;;;;;7344326;19;109164;-85
2022/03/13 01:11:05;;;;;;;2.00;1.75;;;12.20;94.10;;;;;;7340780;19;109129;-85
2022/03/13 01:13:33;;;;;;;1.98;1.70;;;12.20;94.10;;;;;;7341592;19;108776;-85
2022/03/13 01:16:21;;;;;;;4.05;2.00;;;12.20;94.10;;;;;;7345695;19;109760;-84
2022/03/13 01:18:52;;;;;;;2.75;1.73;;;12.30;94.30;;;;;;7340382;19;108707;-85
2022/03/13 01:21:20;;;;;;;2.10;1.60;;;12.20;94.40;;;;;;7338951;19;109938;-85
2022/03/13 01:24:02;;;;;;;2.55;1.73;;;12.20;94.50;;;;;;7341426;19;110280;-85
2022/03/13 01:26:34;;;;;;;2.03;1.52;;;12.10;94.90;;;;;;7343286;19;108661;-86
2022/03/13 01:29:04;;;;;;;1.70;1.50;;;12.10;94.90;;;;;;7348198;19;109896;-85
2022/03/13 01:31:35;;;;;;;2.55;1.85;;;12.10;95.00;;;;;;7347570;19;112491;-85
2022/03/13 01:34:05;;;;;;;4.00;1.60;;;12.10;94.90;;;;;;7348484;19;111491;-85
2022/03/13 01:36:32;;;;;;;1.92;1.73;;;12.10;95.00;;;;;;7348120;19;110345;-85
2022/03/13 01:39:01;;;;;;;3.47;1.75;;;12.10;94.90;;;;;;7350190;19;110580;-85
2022/03/13 01:41:29;;;;;;;2.10;1.83;;;12.20;94.90;;;;;;7345703;19;109712;-85
2022/03/13 01:43:58;;;;;;;1.80;1.50;;;12.20;94.80;;;;;;7347030;19;110203;-86
2022/03/13 01:46:26;;;;;;;2.30;1.60;;;12.20;95.00;;;;;;7346462;19;108638;-85
2022/03/13 01:49:02;;;;;;;2.80;1.67;;;12.20;95.00;;;;;;7347061;19;111480;-85
2022/03/13 01:51:31;;;;;;;2.20;1.80;;;12.20;94.80;;;;;;7345992;19;110121;-85
2022/03/13 01:54:04;;;;;;;1.92;1.67;;;12.30;94.90;;;;;;7346679;19;108372;-85
2022/03/13 01:56:33;;;;;;;2.20;1.70;;;12.30;94.80;;;;;;7346750;19;109379;-85
2022/03/13 01:59:02;;;;;;;1.80;1.45;;;12.20;94.80;;;;;;7351035;19;110232;-85
2022/03/13 02:01:29;;;;;;;1.85;1.65;;;12.30;95.00;;;;;;7346545;19;109807;-85
2022/03/13 02:03:56;;;;;;;2.50;1.98;;;12.20;95.00;;;;;;7346110;19;110079;-85
2022/03/13 02:06:24;;;;;;;2.30;1.90;;;12.20;95.10;;;;;;7346753;19;108338;-84
2022/03/13 02:08:54;;;;;;;2.15;1.70;;;12.20;95.30;;;;;;7345309;19;109638;-85
2022/03/13 02:11:40;;;;;;;1.83;1.67;;;12.20;95.40;;;;;;7343246;19;110244;-85
2022/03/13 02:14:11;;;;;;;1.88;1.60;;;12.10;95.50;;;;;;7343777;19;110519;-85
2022/03/13 02:16:39;;;;;;;1.95;1.65;;;12.10;95.30;;;;;;7342408;19;109431;-85
2022/03/13 02:19:06;;;;;;;1.77;1.65;;;12.20;95.40;;;;;;7342960;19;110466;-85
2022/03/13 02:21:51;;;;;;;2.30;1.88;;;12.20;95.50;;;;;;7349029;19;108307;-85
2022/03/13 02:24:25;;;;;;;2.55;2.13;;;12.20;95.60;;;;;;7346558;19;110178;-85
2022/03/13 02:27:03;;;;;;;2.28;2.05;;;12.10;95.60;;;;;;7347264;19;110975;-85
2022/03/13 02:29:34;;;;;;;2.53;2.25;;;12.10;95.70;;;;;;7346580;19;108778;-85
2022/03/13 02:32:01;;;;;;;2.33;2.13;;;12.10;95.90;;;;;;7347154;19;109846;-85
2022/03/13 02:34:29;;;;;;;2.42;2.05;;;12.10;95.90;;;;;;7345003;19;110368;-85
2022/03/13 02:37:00;;;;;;;2.17;1.98;;;12.10;96.00;;;;;;7342832;19;112909;-85
2022/03/13 02:39:28;;;;;;;2.65;2.10;;;12.10;96.20;;;;;;7343045;19;110123;-85
2022/03/13 02:41:55;;;;;;;2.75;2.40;;;12.10;96.40;;;;;;7344951;19;108340;-85
2022/03/13 02:44:22;;;;;;;2.40;2.10;;;12.00;96.50;;;;;;7349190;19;109504;-85
2022/03/13 02:46:49;;;;;;;2.67;2.20;;;12.00;96.60;;;;;;7343373;19;108632;-85
2022/03/13 02:49:19;;;;;;;3.60;2.45;;;12.10;96.80;;;;;;7345379;19;109377;-85
2022/03/13 02:51:49;;;;;;;2.90;2.60;;;12.00;97.10;;;;;;7344443;19;109156;-86
2022/03/13 02:54:17;;;;;;;2.83;2.55;;;12.00;97.60;;;;;;7344349;19;112022;-85
2022/03/13 02:56:45;;;;;;;3.13;2.83;;;11.90;97.90;;;;;;7345824;19;109852;-85
2022/03/13 02:59:13;;;;;;;3.13;2.83;;;11.90;98.00;;;;;;7344713;19;113474;-85
2022/03/13 03:01:41;;;;;;;4.13;3.67;;;11.90;98.30;;;;;;7345458;19;109112;-85
2022/03/13 03:04:09;;;;;;;8.25;3.00;;;11.80;98.60;;;;;;7344100;19;109482;-85
2022/03/13 03:06:40;;;;;;;3.33;2.88;;;11.80;98.60;;;;;;7349379;19;109238;-85
2022/03/13 03:09:07;;;;;;;3.83;3.42;;;11.80;98.50;;;;;;7344138;19;109841;-85
2022/03/13 03:11:34;;;;;;;4.55;3.20;;;11.90;98.30;;;;;;7345010;19;110467;-85
2022/03/13 03:14:02;;;;;;;3.55;3.25;;;11.90;98.20;;;;;;7341496;19;109283;-85
2022/03/13 03:16:30;;;;;;;3.15;2.80;;;11.90;98.20;;;;;;7341660;19;112558;-85
2022/03/13 03:18:58;;;;;;;3.83;3.13;;;12.00;98.10;;;;;;7343253;19;112256;-85
2022/03/13 03:21:26;;;;;;;3.70;2.88;;;12.00;98.20;;;;;;7342780;19;108389;-84
2022/03/13 03:23:53;;;;;;;3.58;2.83;;;12.00;98.10;;;;;;7344082;19;109507;-86
2022/03/13 03:26:20;;;;;;;3.30;3.00;;;12.00;98.10;;;;;;7342716;19;110309;-85
2022/03/13 03:28:47;;;;;;;3.53;3.08;;;12.00;98.00;;;;;;7348561;19;108625;-84
2022/03/13 03:31:14;;;;;;;3.25;2.88;;;12.00;98.10;;;;;;7343780;19;110371;-86
2022/03/13 03:33:42;;;;;;;3.00;2.75;;;12.00;98.00;;;;;;7341931;19;110310;-86
2022/03/13 03:36:16;;;;;;;3.67;3.05;;;12.00;97.80;;;;;;7341795;19;109522;-86
2022/03/13 03:38:43;;;;;;;3.25;2.72;;;12.00;98.20;;;;;;7340459;19;110544;-85
2022/03/13 03:41:10;;;;;;;3.30;3.00;;;12.00;98.00;;;;;;7340105;19;108466;-86
2022/03/13 03:43:37;;;;;;;3.15;2.63;;;12.00;98.30;;;;;;7343292;19;112888;-85
2022/03/13 03:46:05;;;;;;;3.85;3.45;;;12.00;98.20;;;;;;7341200;19;109477;-85
2022/03/13 03:48:32;;;;;;;3.47;3.17;;;12.00;98.40;;;;;;7344086;19;111133;-85
2022/03/13 03:50:59;;;;;;;3.67;2.80;;;12.00;98.40;;;;;;7347914;19;110509;-86
2022/03/13 03:53:26;;;;;;;3.58;3.17;;;12.00;98.20;;;;;;7343212;19;108332;-85
2022/03/13 03:55:53;;;;;;;4.53;3.35;;;11.90;98.30;;;;;;7343405;19;110493;-85
2022/03/13 03:58:21;;;;;;;4.50;3.20;;;12.00;98.30;;;;;;7343926;19;109202;-85
2022/03/13 04:00:48;;;;;;;4.00;3.58;;;11.90;98.50;;;;;;7340540;19;108636;-85
2022/03/13 04:03:16;;;;;;;3.90;3.50;;;11.90;98.60;;;;;;7343686;19;109804;-85
2022/03/13 04:05:43;;;;;;;4.47;3.05;;;11.90;98.60;;;;;;7341390;19;110268;-85
2022/03/13 04:08:10;;;;;;;5.00;3.45;;;11.90;98.80;;;;;;7342000;19;108412;-85
2022/03/13 04:10:38;;;;;;;4.03;3.33;;;11.80;99.10;;;;;;7348230;19;109842;-85
2022/03/13 04:13:05;;;;;;;4.07;3.45;;;11.80;99.10;;;;;;7341381;19;111981;-85
2022/03/13 04:15:32;;;;;;;3.78;3.28;;;11.80;98.90;;;;;;7340557;19;109380;-85
2022/03/13 04:17:59;;;;;;;3.30;3.00;;;11.80;98.90;;;;;;7340311;19;110233;-85
2022/03/13 04:20:27;;;;;;;3.83;3.35;;;11.80;99.20;;;;;;7339431;19;109450;-85
2022/03/13 04:22:54;;;;;;;4.28;3.78;;;11.80;98.80;;;;;;7341395;19;109455;-85
2022/03/13 04:25:21;;;;;;;4.28;2.78;;;11.90;98.90;;;;;;7341426;19;111873;-85
2022/03/13 04:27:48;;;;;;;5.25;3.25;;;11.80;99.00;;;;;;7342802;19;109399;-85
2022/03/13 04:30:15;;;;;;;4.75;3.88;;;11.80;99.10;;;;;;7341851;19;109389;-85
2022/03/13 04:32:42;;;;;;;4.32;3.63;;;11.80;99.10;;;;;;7346031;19;110173;-84
2022/03/13 04:35:09;;;;;;;4.13;3.65;;;11.80;99.20;;;;;;7341621;19;109523;-85
2022/03/13 04:37:37;;;;;;;4.57;3.40;;;11.70;99.10;;;;;;7341514;19;110171;-86
2022/03/13 04:40:05;;;;;;;4.00;3.60;;;11.80;99.30;;;;;;7341001;19;108313;-84
2022/03/13 04:42:32;;;;;;;4.72;3.67;;;11.70;99.40;;;;;;7342683;19;112018;-85
2022/03/13 04:44:59;;;;;;;6.88;3.83;;;11.70;99.30;;;;;;7340164;19;110590;-86
2022/03/13 04:47:31;;;;;;;3.70;3.40;;;11.70;99.50;;;;;;7341648;19;109200;-86
2022/03/13 04:49:59;;;;;;;4.13;3.47;;;11.70;99.40;;;;;;7341421;19;109818;-85
2022/03/13 04:52:27;;;;;;;4.78;3.70;;;11.70;99.70;;;;;;7340931;19;110648;-86
2022/03/13 04:54:54;;;;;;;8.00;4.00;;;11.70;99.70;;;;;;7342977;19;109270;-85
2022/03/13 04:57:22;;;;;;;5.18;3.85;;;11.70;99.70;;;;;;7339089;19;110215;-85
2022/03/13 04:59:49;;;;;;;7.43;3.42;;;11.70;99.70;;;;;;7341555;19;108882;-85
2022/03/13 05:02:16;;;;;;;4.93;3.92;;;11.70;99.90;;;;;;7340145;19;109579;-84
2022/03/13 05:04:43;;;;;;;5.18;4.30;;;11.70;99.90;;;;;;7340799;19;110415;-84
2022/03/13 05:07:10;;;;;;;;;;;11.70;99.90;;;;;;7342138;19;108672;-84
2022/03/13 05:09:38;;;;;;;4.38;3.65;;;11.60;99.90;;;;;;7343859;19;109501;-84
2022/03/13 05:12:07;;;;;;;4.57;4.07;;;11.60;99.90;;;;;;7339723;19;110162;-84
2022/03/13 05:14:34;;;;;;;4.38;3.92;;;11.60;99.90;;;;;;7341308;19;108944;-84
2022/03/13 05:17:02;;;;;;;8.20;3.70;;;11.70;99.90;;;;;;7342620;19;114615;-84
2022/03/13 05:19:29;;;;;;;5.78;4.80;;;11.60;99.90;;;;;;7339343;19;110468;-84
2022/03/13 05:21:56;;;;;;;5.22;4.70;;;11.60;99.90;;;;;;7340608;19;111982;-84
2022/03/13 05:24:24;;;;;;;7.70;4.53;;;11.60;99.90;;;;;;7339465;19;110458;-84
2022/03/13 05:26:51;;;;;;;6.22;5.28;;;11.60;99.90;;;;;;7338556;19;108440;-84
2022/03/13 05:29:18;;;;;;;7.55;4.85;;;11.60;99.90;;;;;;7340266;19;112533;-84
2022/03/13 05:31:45;;;;;;;5.35;4.70;;;11.60;99.90;;;;;;7338341;19;110369;-84
2022/03/13 05:34:13;;;;;;;6.65;5.40;;;11.60;99.90;;;;;;7341075;19;108839;-84
2022/03/13 05:36:40;;;;;;;5.80;5.30;;;11.60;99.90;;;;;;7340124;19;108481;-84
2022/03/13 05:39:09;;;;;;;5.80;5.20;;;11.60;99.90;;;;;;7346442;19;110191;-84
2022/03/13 05:41:40;;;;;;;8.50;5.97;;;11.60;99.90;;;;;;7337819;19;110908;-84
2022/03/13 05:44:12;;;;;;;7.18;6.10;;;11.50;99.90;;;;;;7339843;19;110443;-84
2022/03/13 05:46:40;;;;;;;9.10;6.65;;;11.50;99.90;;;;;;7340059;19;109271;-84
2022/03/13 05:49:08;;;;;;;8.10;7.03;;;11.50;99.90;;;;;;7338213;19;109517;-85
2022/03/13 05:51:37;;;;;;;7.28;6.32;;;11.50;99.90;;;;;;7337979;19;111064;-84
2022/03/13 05:54:04;;;;;;;7.32;6.63;;;11.50;99.90;;;;;;7338495;19;108206;-84
2022/03/13 05:56:31;;;;;;;9.43;6.78;;;11.40;99.90;;;;;;7340189;19;109617;-84
2022/03/13 05:58:59;;;;;;;8.20;7.30;;;11.50;99.90;;;;;;7339200;19;112979;-84
2022/03/13 06:01:26;;;;;;;7.95;6.85;;;11.40;99.90;;;;;;7342902;19;108127;-84
2022/03/13 06:03:58;;;;;;;9.48;7.88;;;11.40;99.90;;;;;;7338758;19;110179;-84
2022/03/13 06:06:25;;;;;;;10.73;7.90;;;11.40;99.90;;;;;;7340075;19;108467;-84
2022/03/13 06:08:52;;;;;;;8.45;7.55;;;11.40;99.90;;;;;;7339151;19;109422;-85
2022/03/13 06:11:19;;;;;;;9.23;8.00;;;11.30;99.90;;;;;;7338153;19;109675;-84
2022/03/13 06:13:46;;;;;;;10.38;8.77;;;11.30;99.90;;;;;;7344865;19;108825;-84
2022/03/13 06:16:14;;;;;;;11.13;8.18;;;11.30;99.90;;;;;;7346292;19;109362;-84
2022/03/13 06:18:42;;;;;;;10.50;8.40;;;11.30;99.90;;;;;;7346155;19;110151;-84
2022/03/13 06:21:09;;;;;;;9.77;8.50;;;11.30;99.90;;;;;;7347179;19;108455;-85
2022/03/13 06:23:36;;;;;;;10.00;9.00;;;11.30;99.90;;;;;;7345361;19;110161;-84
2022/03/13 06:26:04;;;;;;;12.20;9.40;;;11.30;99.90;;;;;;7346166;19;108457;-84
2022/03/13 06:28:31;;;;;;;11.45;9.50;;;11.20;99.90;;;;;;7345702;19;110985;-84
2022/03/13 06:30:58;;;;;;;15.10;9.52;;;11.20;99.90;;;;;;7342335;19;110163;-84
2022/03/13 06:33:26;;;;;;;13.63;10.05;;;11.20;99.90;;;;;;7345412;19;108481;-84
2022/03/13 06:35:53;;;;;;;16.75;10.02;;;11.20;99.90;;;;;;7342536;19;112018;-84
2022/03/13 06:38:20;;;;;;;13.10;10.10;;;11.20;99.90;;;;;;7342609;19;110362;-84
2022/03/13 06:40:47;;;;;;;13.75;9.70;;;11.10;99.90;;;;;;7341913;19;111749;-84
2022/03/13 06:43:15;;;;;;;12.52;10.07;;;11.10;99.90;;;;;;7351283;19;109909;-84
2022/03/13 06:45:42;;;;;;;12.68;10.25;;;11.10;99.90;;;;;;7342428;19;110568;-84
2022/03/13 06:48:10;;;;;;;14.60;10.20;;;11.00;99.90;;;;;;7342810;19;111823;-85
2022/03/13 06:50:38;;;;;;;13.18;10.68;;;11.00;99.90;;;;;;7343094;19;110033;-84
2022/03/13 06:53:05;;;;;;;16.17;10.65;;;11.00;99.90;;;;;;7341041;19;111522;-84
2022/03/13 06:55:32;;;;;;;15.73;11.55;;;11.00;99.90;;;;;;7341333;19;114106;-84
2022/03/13 06:57:59;;;;;;;14.68;11.45;;;11.00;99.90;;;;;;7342353;19;110199;-85
2022/03/13 07:00:26;;;;;;;14.00;11.45;;;11.00;99.90;;;;;;7341692;19;111421;-84
2022/03/13 07:02:53;;;;;;;16.38;12.25;;;11.00;99.90;;;;;;7341173;19;112115;-85
2022/03/13 07:05:22;;;;;;;17.83;12.55;;;11.00;99.90;;;;;;7346360;19;110310;-84
2022/03/13 07:07:50;;;;;;;16.73;11.93;;;11.10;99.90;;;;;;7340304;19;111890;-84
2022/03/13 07:10:17;;;;;;;15.75;11.93;;;11.10;99.90;;;;;;7341094;19;113507;-84
2022/03/13 07:12:44;;;;;;;15.48;11.80;;;11.10;99.90;;;;;;7338251;19;110812;-84
2022/03/13 07:15:13;;;;;;;15.77;12.70;;;11.20;99.90;;;;;;7341091;19;112107;-84
2022/03/13 07:17:45;;;;;;;15.95;12.10;;;11.20;99.90;;;;;;7339227;19;111670;-84
2022/03/13 07:20:14;;;;;;;18.45;13.25;;;11.20;99.90;;;;;;7339774;19;112240;-84
2022/03/13 07:22:42;;;;;;;20.25;13.23;;;11.30;99.90;;;;;;7338482;19;111841;-84
2022/03/13 07:25:10;;;;;;;18.10;13.43;;;11.40;99.90;;;;;;7337866;19;110304;-84
2022/03/13 07:27:37;;;;;;;15.75;13.07;;;11.40;99.90;;;;;;7346789;19;110710;-84
2022/03/13 07:30:12;;;;;;;16.38;13.07;;;11.40;99.90;;;;;;7342183;19;110235;-84
2022/03/13 07:32:43;;;;;;;16.45;13.38;;;11.40;99.90;;;;;;7339545;19;112371;-83
2022/03/13 07:35:11;;;;;;;19.30;13.60;;;11.50;99.90;;;;;;7341413;19;111752;-84
2022/03/13 07:37:39;;;;;;;18.50;13.35;;;11.60;99.90;;;;;;7337909;19;113118;-84
2022/03/13 07:40:06;;;;;;;17.75;13.40;;;11.70;99.90;;;;;;7340977;19;111430;-85
2022/03/13 07:42:34;;;;;;;20.02;13.93;;;11.70;99.90;;;;;;7338281;19;112260;-84
2022/03/13 07:45:01;;;;;;;19.40;14.32;;;11.80;99.90;;;;;;7340581;19;111299;-86
2022/03/13 07:47:30;;;;;;;20.05;14.35;;;11.80;99.90;;;;;;7338117;19;113221;-88
2022/03/13 07:49:57;;;;;;;19.67;14.70;;;11.80;99.90;;;;;;7345811;19;112101;-86
2022/03/13 07:52:25;;;;;;;18.10;14.15;;;11.90;99.90;;;;;;7338487;19;111167;-88
2022/03/13 07:54:58;;;;;;;19.05;15.05;;;12.00;99.90;;;;;;7340921;19;111001;-89
2022/03/13 07:57:25;;;;;;;20.63;15.18;;;12.00;99.90;;;;;;7340844;19;110069;-86
2022/03/13 07:59:52;;;;;;;21.58;14.82;;;12.00;99.90;;;;;;7341021;19;113930;-89
2022/03/13 08:02:19;;;;;;;21.30;15.00;;;12.10;99.90;;;;;;7339261;19;111785;-90
2022/03/13 08:04:46;;;;;;;21.27;14.85;;;12.10;99.90;;;;;;7341409;19;110645;-90
2022/03/13 08:07:13;;;;;;;17.33;13.98;;;12.10;99.90;;;;;;7341340;19;111747;-91
2022/03/13 08:09:40;;;;;;;18.90;14.52;;;12.10;99.90;;;;;;7345378;19;110794;-90
2022/03/13 08:12:08;;;;;;;21.65;15.75;;;12.10;99.90;;;;;;7341394;19;111303;-91
2022/03/13 08:14:35;;;;;;;26.77;16.00;;;12.20;99.90;;;;;;7341454;19;111318;-92
2022/03/13 08:17:03;;;;;;;22.38;15.80;;;12.20;99.90;;;;;;7340769;19;110027;-91
2022/03/13 08:19:30;;;;;;;23.77;16.83;;;12.30;99.90;;;;;;7341392;19;110863;-90
2022/03/13 08:21:57;;;;;;;20.65;15.65;;;12.40;99.90;;;;;;7340393;19;111978;-92
2022/03/13 08:24:24;;;;;;;22.27;15.48;;;12.50;99.90;;;;;;7341262;19;111590;-91
2022/03/13 08:26:51;;;;;;;23.38;15.90;;;12.50;99.90;;;;;;7339379;19;111847;-92
2022/03/13 08:29:18;;;;;;;23.90;15.35;;;12.60;99.90;;;;;;7339768;19;112203;-89
2022/03/13 08:31:45;;;;;;;22.27;15.65;;;12.70;99.70;;;;;;7343966;19;110073;-91
2022/03/13 08:34:12;;;;;;;20.23;14.60;;;12.70;99.80;;;;;;7339608;19;112531;-90
2022/03/13 08:36:43;;;;;;;21.50;14.70;;;12.80;99.70;;;;;;7338700;19;113817;-91
2022/03/13 08:39:10;;;;;;;16.70;13.65;;;12.80;99.90;;;;;;7338779;19;114079;-92
2022/03/13 08:41:37;;;;;;;26.65;14.90;;;12.90;99.40;;;;;;7341622;19;112086;-88
2022/03/13 08:44:05;;;;;;;19.58;14.20;;;12.90;99.40;;;;;;7333525;19;111971;-86
2022/03/13 08:46:32;;;;;;;18.30;13.90;;;13.00;99.20;;;;;;7337914;19;113449;-86
2022/03/13 08:48:59;;;;;;;17.25;13.55;;;13.10;99.20;;;;;;7339396;19;112146;-86
2022/03/13 08:51:27;;;;;;;18.17;13.63;;;13.20;99.20;;;;;;7337083;19;111667;-86
2022/03/13 08:53:56;;;;;;;16.15;12.40;;;13.20;98.80;;;;;;7339573;19;110398;-84
2022/03/13 08:56:23;;;;;;;17.10;11.95;;;13.30;98.50;;;;;;7337466;19;113130;-86
2022/03/13 08:58:56;;;;;;;17.55;12.77;;;13.30;98.60;;;;;;7336297;19;110398;-85
2022/03/13 09:01:25;;;;;;;14.40;11.90;;;13.40;98.90;;;;;;7338790;19;111964;-89
2022/03/13 09:03:52;;;;;;;18.48;12.77;;;13.50;98.50;;;;;;7337675;19;111545;-86
2022/03/13 09:06:23;;;;;;;15.80;12.07;;;13.60;98.50;;;;;;7334558;19;111479;-87
2022/03/13 09:08:50;;;;;;;16.40;12.60;;;13.70;98.50;;;;;;7336573;19;112222;-86
2022/03/13 09:11:17;;;;;;;15.57;12.00;;;13.70;97.90;;;;;;7338662;19;110353;-86
2022/03/13 09:13:45;;;;;;;11.55;10.35;;;13.80;98.20;;;;;;7336102;19;112758;-85
2022/03/13 09:16:12;;;;;;;14.52;10.65;;;13.80;97.70;;;;;;7343270;19;111833;-88
2022/03/13 09:18:40;;;;;;;12.90;10.57;;;13.90;97.70;;;;;;7338045;19;111914;-86
2022/03/13 09:21:07;;;;;;;12.73;10.40;;;14.00;97.60;;;;;;7334463;19;111139;-85
2022/03/13 09:23:34;;;;;;;13.32;8.95;;;14.10;97.70;;;;;;7335875;19;110201;-85
2022/03/13 09:26:01;;;;;;;15.32;8.85;;;14.20;97.40;;;;;;7341392;19;110469;-85
2022/03/13 09:28:29;;;;;;;10.80;8.77;;;14.30;96.80;;;;;;7339094;19;109519;-87
2022/03/13 09:30:57;;;;;;;9.55;8.20;;;14.30;96.70;;;;;;7344558;19;109689;-95
2022/03/13 09:33:24;;;;;;;9.52;7.68;;;14.30;96.80;;;;;;7354375;19;108919;-94
2022/03/13 09:35:51;;;;;;;12.00;7.93;;;14.40;96.80;;;;;;7349406;19;108543;-95
2022/03/13 09:38:19;;;;;;;11.80;7.82;;;14.60;95.80;;;;;;7353956;19;111152;-94
2022/03/13 09:40:46;;;;;;;8.77;7.88;;;14.90;95.10;;;;;;7351758;19;109177;-96
2022/03/13 09:43:13;;;;;;;10.30;7.13;;;15.00;95.10;;;;;;7350564;19;111284;-95
2022/03/13 09:45:41;;;;;;;8.18;7.25;;;15.10;94.80;;;;;;7353346;19;108351;-93
2022/03/13 09:48:09;;;;;;;9.45;7.25;;;15.20;94.60;;;;;;7358099;19;108420;-95
2022/03/13 09:50:36;;;;;;;7.80;7.00;;;15.20;94.70;;;;;;7354610;19;110703;-94
2022/03/13 09:53:03;;;;;;;8.32;7.53;;;15.30;93.90;;;;;;7347685;19;109529;-87
2022/03/13 09:55:30;;;;;;;10.27;7.97;;;15.30;94.00;;;;;;7348730;19;108753;-88
2022/03/13 09:57:58;;;;;;;8.20;7.05;;;15.30;94.30;;;;;;7347835;19;110004;-89
2022/03/13 10:00:26;;;;;;;17.15;8.13;;;15.30;94.20;;;;;;7354666;19;109455;-87
2022/03/13 10:02:54;;;;;;;15.63;7.40;;;15.30;94.80;;;;;;7344863;19;110162;-86
2022/03/13 10:05:24;;;;;;;9.85;7.60;;;15.40;94.70;;;;;;7347553;19;108360;-87
2022/03/13 10:08:00;;;;;;;7.75;6.88;;;15.60;94.40;;;;;;7347664;19;110051;-88
2022/03/13 10:10:43;;;;;;;8.05;7.25;;;15.80;93.30;;;;;;7345501;19;113389;-88
2022/03/13 10:13:14;;;;;;;11.93;7.28;;;15.80;93.90;;;;;;7348336;19;108506;-87
2022/03/13 10:15:43;;;;;;;7.53;6.63;;;15.90;93.70;;;;;;7343695;19;108961;-87
2022/03/13 10:18:16;;;;;;;7.15;5.93;;;16.00;93.00;;;;;;7347454;19;110524;-87
2022/03/13 10:20:44;;;;;;;7.18;6.00;;;16.10;93.20;;;;;;7348753;19;108605;-88
2022/03/13 10:23:16;;;;;;;7.55;6.00;;;16.20;93.20;;;;;;7345087;19;110532;-89
2022/03/13 10:25:45;;;;;;;5.80;5.10;;;16.30;92.70;;;;;;7347864;19;108907;-88
2022/03/13 10:28:30;;;;;;;6.28;5.07;;;16.30;92.30;;;;;;7345463;19;109484;-90
2022/03/13 10:31:00;;;;;;;6.32;4.85;;;16.50;92.00;;;;;;7348423;19;111539;-88
2022/03/13 10:33:47;;;;;;;6.75;4.70;;;16.50;90.70;;;;;;7347533;19;108381;-90
2022/03/13 10:36:16;;;;;;;10.32;4.80;;;16.60;90.50;;;;;;7346927;19;109021;-88
2022/03/13 10:38:45;;;;;;;8.23;5.70;;;16.50;90.40;;;;;;7345250;19;109899;-87
2022/03/13 10:41:13;;;;;;;5.53;4.93;;;16.40;91.00;;;;;;7347566;19;108440;-89
2022/03/13 10:43:52;;;;;;;5.35;4.68;;;16.50;91.40;;;;;;7349180;19;112000;-90
2022/03/13 10:46:30;;;;;;;6.03;4.55;;;16.60;91.20;;;;;;7347827;19;110680;-90
2022/03/13 10:49:00;;;;;;;6.97;4.53;;;16.70;91.40;;;;;;7347251;19;109866;-89
2022/03/13 10:51:48;;;;;;;5.95;4.20;;;16.90;91.00;;;;;;7346846;19;110295;-89
2022/03/13 10:54:30;;;;;;;5.25;4.00;;;17.00;90.00;;;;;;7345709;19;108241;-88
2022/03/13 10:57:23;;;;;;;5.78;4.50;;;16.90;90.60;;;;;;7345790;19;109950;-88
2022/03/13 11:00:09;;;;;;;7.85;4.75;;;17.00;90.60;;;;;;7343377;19;110318;-88
2022/03/13 11:02:36;;;;;;;19.67;4.72;;;17.00;90.60;;;;;;7346284;19;111164;-87
2022/03/13 11:05:05;;;;;;;6.32;4.13;;;17.00;90.50;;;;;;7344969;19;109985;-87
2022/03/13 11:07:33;;;;;;;4.85;4.35;;;17.10;90.50;;;;;;7347861;19;109898;-87
2022/03/13 11:10:00;;;;;;;6.65;4.68;;;17.20;90.20;;;;;;7345222;19;109649;-88
2022/03/13 11:12:27;;;;;;;6.22;5.03;;;17.20;90.80;;;;;;7345234;19;110286;-87
2022/03/13 11:14:57;;;;;;;7.68;4.50;;;17.40;89.80;;;;;;7345203;19;108650;-89
2022/03/13 11:17:27;;;;;;;5.05;4.22;;;17.40;90.00;;;;;;7341692;19;109075;-87
2022/03/13 11:19:58;;;;;;;5.60;4.50;;;17.50;90.00;;;;;;7341736;19;110670;-88
2022/03/13 11:22:28;;;;;;;5.90;4.93;;;17.60;89.40;;;;;;7345071;19;108365;-87
2022/03/13 11:25:02;;;;;;;5.85;3.90;;;17.70;87.30;;;;;;7346845;19;109820;-88
2022/03/13 11:27:35;;;;;;;5.93;4.10;;;17.70;88.10;;;;;;7342597;19;109657;-89
2022/03/13 11:30:05;;;;;;;6.55;3.63;;;17.80;88.00;;;;;;7348531;19;111304;-88
2022/03/13 11:32:40;;;;;;;4.45;3.83;;;18.40;82.90;;;;;;7343938;19;110504;-87
2022/03/13 11:35:10;;;;;;;3.83;3.45;;;18.40;84.30;;;;;;7343039;19;109880;-88
2022/03/13 11:38:06;;;;;;;3.50;3.08;;;18.20;85.40;;;;;;7343234;19;110175;-89
2022/03/13 11:40:38;;;;;;;3.85;3.33;;;18.20;85.10;;;;;;7346503;19;110642;-86
2022/03/13 11:43:12;;;;;;;13.73;3.22;;;18.30;84.20;;;;;;7342543;19;108643;-88
2022/03/13 11:46:00;;;;;;;3.08;2.75;;;18.70;81.10;;;;;;7347843;19;108922;-89
2022/03/13 11:48:32;;;;;;;5.30;2.67;;;19.10;77.70;;;;;;7346116;19;109515;-89
2022/03/13 11:51:03;;;;;;;3.05;2.75;;;18.80;79.10;;;;;;7345113;19;108654;-88
2022/03/13 11:53:40;;;;;;;3.55;2.80;;;18.80;78.90;;;;;;7351157;19;109369;-86
2022/03/13 11:56:26;;;;;;;3.50;3.20;;;18.60;79.10;;;;;;7348598;19;109292;-89
2022/03/13 11:58:59;;;;;;;5.68;3.03;;;18.50;81.10;;;;;;7345344;19;111905;-91
2022/03/13 12:01:35;;;;;;;4.72;2.88;;;18.60;78.00;;;;;;7345223;19;110520;-92
2022/03/13 12:04:05;;;;;;;4.25;3.13;;;19.00;76.50;;;;;;7347119;19;108462;-90
2022/03/13 12:06:42;;;;;;;2.97;2.45;;;19.00;76.60;;;;;;7345096;19;111166;-87
2022/03/13 12:09:13;;;;;;;3.80;3.47;;;18.80;76.30;;;;;;7341753;19;110576;-86
2022/03/13 12:11:45;;;;;;;3.55;3.10;;;18.90;77.90;;;;;;7343109;19;108325;-87
2022/03/13 12:14:15;;;;;;;3.10;2.80;;;18.80;78.90;;;;;;7344089;19;109546;-89
2022/03/13 12:16:45;;;;;;;3.33;2.63;;;18.80;80.40;;;;;;7347930;19;109757;-87
2022/03/13 12:19:17;;;;;;;3.17;2.30;;;18.90;78.50;;;;;;7341051;19;109441;-86
2022/03/13 12:21:47;;;;;;;2.53;2.17;;;19.30;75.40;;;;;;7344166;19;110318;-87
2022/03/13 12:24:20;;;;;;;2.17;1.98;;;19.10;75.80;;;;;;7339391;19;110447;-86
2022/03/13 12:26:52;;;;;;;3.70;2.33;;;19.40;74.30;;;;;;7342460;19;109452;-89
2022/03/13 12:29:20;;;;;;;3.42;2.80;;;19.30;74.30;;;;;;7342976;19;110207;-87
2022/03/13 12:31:49;;;;;;;5.60;3.45;;;19.10;73.60;;;;;;7344730;19;108325;-88
2022/03/13 12:34:26;;;;;;;5.25;3.17;;;19.10;74.90;;;;;;7344868;19;109613;-88
2022/03/13 12:36:54;;;;;;;4.32;2.70;;;19.00;77.00;;;;;;7348299;19;110466;-87
2022/03/13 12:39:21;;;;;;;3.25;2.30;;;19.30;76.10;;;;;;7343565;19;110271;-91
2022/03/13 12:42:04;;;;;;;2.30;1.95;;;19.40;75.60;;;;;;7344513;19;109628;-88
2022/03/13 12:44:37;;;;;;;2.50;2.20;;;19.40;75.80;;;;;;7341310;19;108607;-88